sensor_id;sensor_type;location;lat;lon;timestamp;P1;durP1;ratioP1;P2;durP2;ratioP2
63807;SDS011;49961;43.970;22.868;2022-07-23T00:00:27;9.00;;;3.60;;
63807;SDS011;49961;43.970;22.868;2022-07-23T00:01:28;5.87;;;3.70;;
63807;SDS011;49961;43.970;22.868;2022-07-23T00:02:28;7.87;;;3.70;;
63807;SDS011;49961;43.970;22.868;2022-07-23T00:03:29;7.07;;;3.57;;
63807;SDS011;49961;43.970;22.868;2022-07-23T00:04:29;8.17;;;3.67;;
63807;SDS011;49961;43.970;22.868;2022-07-23T00:05:30;6.80;;;3.73;;
63807;SDS011;49961;43.970;22.868;2022-07-23T00:06:30;9.27;;;3.50;;
63807;SDS011;49961;43.970;22.868;2022-07-23T00:07:31;7.87;;;3.60;;
63807;SDS011;49961;43.970;22.868;2022-07-23T00:08:31;8.53;;;3.70;;
63807;SDS011;49961;43.970;22.868;2022-07-23T00:09:32;7.57;;;3.63;;
63807;SDS011;49961;43.970;22.868;2022-07-23T00:10:32;8.27;;;3.70;;
63807;SDS011;49961;43.970;22.868;2022-07-23T00:11:33;7.73;;;3.50;;
63807;SDS011;49961;43.970;22.868;2022-07-23T00:12:33;8.67;;;3.77;;
63807;SDS011;49961;43.970;22.868;2022-07-23T00:13:34;8.77;;;3.70;;
63807;SDS011;49961;43.970;22.868;2022-07-23T00:14:35;7.17;;;3.93;;
63807;SDS011;49961;43.970;22.868;2022-07-23T00:15:35;12.53;;;4.20;;
63807;SDS011;49961;43.970;22.868;2022-07-23T00:16:36;12.03;;;3.83;;
63807;SDS011;49961;43.970;22.868;2022-07-23T00:17:37;13.80;;;4.20;;
63807;SDS011;49961;43.970;22.868;2022-07-23T00:18:37;10.27;;;4.03;;
63807;SDS011;49961;43.970;22.868;2022-07-23T00:19:37;10.57;;;4.30;;
63807;SDS011;49961;43.970;22.868;2022-07-23T00:20:38;8.13;;;4.27;;
63807;SDS011;49961;43.970;22.868;2022-07-23T00:21:38;13.20;;;4.40;;
63807;SDS011;49961;43.970;22.868;2022-07-23T00:22:52;6.43;;;4.03;;
63807;SDS011;49961;43.970;22.868;2022-07-23T00:23:54;7.77;;;3.63;;
63807;SDS011;49961;43.970;22.868;2022-07-23T00:24:55;10.60;;;4.27;;
63807;SDS011;49961;43.970;22.868;2022-07-23T00:25:56;8.07;;;3.90;;
63807;SDS011;49961;43.970;22.868;2022-07-23T00:26:57;10.67;;;3.90;;
63807;SDS011;49961;43.970;22.868;2022-07-23T00:27:58;6.50;;;3.83;;
63807;SDS011;49961;43.970;22.868;2022-07-23T00:28:59;5.70;;;3.90;;
63807;SDS011;49961;43.970;22.868;2022-07-23T00:29:59;9.03;;;3.60;;
63807;SDS011;49961;43.970;22.868;2022-07-23T00:31:00;8.60;;;3.57;;
63807;SDS011;49961;43.970;22.868;2022-07-23T00:32:00;9.43;;;3.80;;
63807;SDS011;49961;43.970;22.868;2022-07-23T00:33:03;7.30;;;3.70;;
63807;SDS011;49961;43.970;22.868;2022-07-23T00:34:05;7.60;;;3.93;;
63807;SDS011;49961;43.970;22.868;2022-07-23T00:35:05;8.47;;;3.83;;
63807;SDS011;49961;43.970;22.868;2022-07-23T00:36:06;10.60;;;3.60;;
63807;SDS011;49961;43.970;22.868;2022-07-23T00:37:07;9.90;;;3.90;;
63807;SDS011;49961;43.970;22.868;2022-07-23T00:38:08;8.73;;;3.40;;
63807;SDS011;49961;43.970;22.868;2022-07-23T00:39:12;7.80;;;3.50;;
63807;SDS011;49961;43.970;22.868;2022-07-23T00:40:13;7.87;;;3.60;;
63807;SDS011;49961;43.970;22.868;2022-07-23T00:41:13;11.23;;;3.73;;
63807;SDS011;49961;43.970;22.868;2022-07-23T00:42:14;7.73;;;4.10;;
63807;SDS011;49961;43.970;22.868;2022-07-23T00:43:14;5.90;;;3.80;;
63807;SDS011;49961;43.970;22.868;2022-07-23T00:44:19;6.07;;;3.80;;
63807;SDS011;49961;43.970;22.868;2022-07-23T00:45:24;5.93;;;3.70;;
63807;SDS011;49961;43.970;22.868;2022-07-23T00:46:25;6.57;;;3.93;;
63807;SDS011;49961;43.970;22.868;2022-07-23T00:47:27;5.73;;;3.20;;
63807;SDS011;49961;43.970;22.868;2022-07-23T00:48:27;7.80;;;3.83;;
63807;SDS011;49961;43.970;22.868;2022-07-23T00:49:28;8.07;;;3.87;;
63807;SDS011;49961;43.970;22.868;2022-07-23T00:50:30;8.73;;;3.80;;
63807;SDS011;49961;43.970;22.868;2022-07-23T00:51:31;8.20;;;3.97;;
63807;SDS011;49961;43.970;22.868;2022-07-23T00:52:31;7.10;;;3.90;;
63807;SDS011;49961;43.970;22.868;2022-07-23T00:53:33;8.03;;;3.93;;
63807;SDS011;49961;43.970;22.868;2022-07-23T00:54:34;7.00;;;3.50;;
63807;SDS011;49961;43.970;22.868;2022-07-23T00:55:35;7.67;;;4.03;;
63807;SDS011;49961;43.970;22.868;2022-07-23T00:56:35;9.57;;;4.30;;
63807;SDS011;49961;43.970;22.868;2022-07-23T00:57:37;7.57;;;3.70;;
63807;SDS011;49961;43.970;22.868;2022-07-23T00:58:39;7.17;;;3.77;;
63807;SDS011;49961;43.970;22.868;2022-07-23T00:59:43;9.67;;;4.10;;
63807;SDS011;49961;43.970;22.868;2022-07-23T01:00:43;6.70;;;3.63;;
63807;SDS011;49961;43.970;22.868;2022-07-23T01:01:44;5.93;;;3.80;;
63807;SDS011;49961;43.970;22.868;2022-07-23T01:02:47;6.27;;;3.67;;
63807;SDS011;49961;43.970;22.868;2022-07-23T01:03:48;9.87;;;3.77;;
63807;SDS011;49961;43.970;22.868;2022-07-23T01:04:48;6.47;;;3.80;;
63807;SDS011;49961;43.970;22.868;2022-07-23T01:05:49;5.63;;;3.80;;
63807;SDS011;49961;43.970;22.868;2022-07-23T01:06:49;6.30;;;3.87;;
63807;SDS011;49961;43.970;22.868;2022-07-23T01:07:51;6.63;;;4.00;;
63807;SDS011;49961;43.970;22.868;2022-07-23T01:08:53;9.00;;;4.13;;
63807;SDS011;49961;43.970;22.868;2022-07-23T01:09:54;5.40;;;3.60;;
63807;SDS011;49961;43.970;22.868;2022-07-23T01:10:55;9.20;;;4.23;;
63807;SDS011;49961;43.970;22.868;2022-07-23T01:11:56;9.20;;;3.77;;
63807;SDS011;49961;43.970;22.868;2022-07-23T01:12:57;8.07;;;3.90;;
63807;SDS011;49961;43.970;22.868;2022-07-23T01:14:13;6.87;;;3.73;;
63807;SDS011;49961;43.970;22.868;2022-07-23T01:15:15;6.33;;;3.67;;
63807;SDS011;49961;43.970;22.868;2022-07-23T01:16:16;7.80;;;4.00;;
63807;SDS011;49961;43.970;22.868;2022-07-23T01:17:16;8.07;;;3.83;;
63807;SDS011;49961;43.970;22.868;2022-07-23T01:18:17;7.07;;;3.87;;
63807;SDS011;49961;43.970;22.868;2022-07-23T01:19:18;6.33;;;4.40;;
63807;SDS011;49961;43.970;22.868;2022-07-23T01:20:19;8.37;;;3.77;;
63807;SDS011;49961;43.970;22.868;2022-07-23T01:21:20;5.97;;;3.90;;
63807;SDS011;49961;43.970;22.868;2022-07-23T01:22:21;6.53;;;3.77;;
63807;SDS011;49961;43.970;22.868;2022-07-23T01:23:22;6.60;;;3.43;;
63807;SDS011;49961;43.970;22.868;2022-07-23T01:24:22;6.43;;;4.00;;
63807;SDS011;49961;43.970;22.868;2022-07-23T01:25:23;7.03;;;4.03;;
63807;SDS011;49961;43.970;22.868;2022-07-23T01:26:23;8.63;;;4.20;;
63807;SDS011;49961;43.970;22.868;2022-07-23T01:27:24;5.67;;;3.73;;
63807;SDS011;49961;43.970;22.868;2022-07-23T01:28:24;6.27;;;4.17;;
63807;SDS011;49961;43.970;22.868;2022-07-23T01:29:25;8.63;;;4.20;;
63807;SDS011;49961;43.970;22.868;2022-07-23T01:30:26;6.70;;;4.00;;
63807;SDS011;49961;43.970;22.868;2022-07-23T01:31:26;8.60;;;4.40;;
63807;SDS011;49961;43.970;22.868;2022-07-23T01:32:27;5.50;;;3.97;;
63807;SDS011;49961;43.970;22.868;2022-07-23T01:33:27;8.13;;;3.50;;
63807;SDS011;49961;43.970;22.868;2022-07-23T01:34:28;6.93;;;3.97;;
63807;SDS011;49961;43.970;22.868;2022-07-23T01:35:28;6.83;;;3.83;;
63807;SDS011;49961;43.970;22.868;2022-07-23T01:36:29;7.47;;;4.33;;
63807;SDS011;49961;43.970;22.868;2022-07-23T01:37:29;6.17;;;4.00;;
63807;SDS011;49961;43.970;22.868;2022-07-23T01:38:29;7.03;;;4.13;;
63807;SDS011;49961;43.970;22.868;2022-07-23T01:39:30;7.83;;;4.47;;
63807;SDS011;49961;43.970;22.868;2022-07-23T01:40:30;8.37;;;4.43;;
63807;SDS011;49961;43.970;22.868;2022-07-23T01:41:31;5.87;;;4.10;;
63807;SDS011;49961;43.970;22.868;2022-07-23T01:42:32;6.57;;;4.20;;
63807;SDS011;49961;43.970;22.868;2022-07-23T01:43:33;6.30;;;4.13;;
63807;SDS011;49961;43.970;22.868;2022-07-23T01:44:34;8.27;;;4.07;;
63807;SDS011;49961;43.970;22.868;2022-07-23T01:45:34;5.93;;;4.53;;
63807;SDS011;49961;43.970;22.868;2022-07-23T01:46:35;7.83;;;4.60;;
63807;SDS011;49961;43.970;22.868;2022-07-23T01:47:35;5.83;;;4.20;;
63807;SDS011;49961;43.970;22.868;2022-07-23T01:48:36;6.30;;;4.17;;
63807;SDS011;49961;43.970;22.868;2022-07-23T01:49:36;6.63;;;4.43;;
63807;SDS011;49961;43.970;22.868;2022-07-23T01:50:37;5.80;;;4.00;;
63807;SDS011;49961;43.970;22.868;2022-07-23T01:51:37;9.00;;;4.23;;
63807;SDS011;49961;43.970;22.868;2022-07-23T01:52:58;8.30;;;4.30;;
63807;SDS011;49961;43.970;22.868;2022-07-23T01:53:58;7.17;;;3.97;;
63807;SDS011;49961;43.970;22.868;2022-07-23T01:54:59;6.00;;;4.30;;
63807;SDS011;49961;43.970;22.868;2022-07-23T01:55:59;8.73;;;4.10;;
63807;SDS011;49961;43.970;22.868;2022-07-23T01:57:00;7.20;;;3.93;;
63807;SDS011;49961;43.970;22.868;2022-07-23T01:58:01;5.97;;;4.03;;
63807;SDS011;49961;43.970;22.868;2022-07-23T01:59:01;7.23;;;4.57;;
63807;SDS011;49961;43.970;22.868;2022-07-23T02:00:02;7.27;;;4.30;;
63807;SDS011;49961;43.970;22.868;2022-07-23T02:01:03;5.03;;;4.43;;
63807;SDS011;49961;43.970;22.868;2022-07-23T02:02:03;7.70;;;4.40;;
63807;SDS011;49961;43.970;22.868;2022-07-23T02:03:05;7.37;;;4.17;;
63807;SDS011;49961;43.970;22.868;2022-07-23T02:04:06;7.97;;;4.50;;
63807;SDS011;49961;43.970;22.868;2022-07-23T02:05:06;6.23;;;4.30;;
63807;SDS011;49961;43.970;22.868;2022-07-23T02:06:07;7.80;;;4.43;;
63807;SDS011;49961;43.970;22.868;2022-07-23T02:07:08;6.00;;;4.20;;
63807;SDS011;49961;43.970;22.868;2022-07-23T02:08:08;9.03;;;4.63;;
63807;SDS011;49961;43.970;22.868;2022-07-23T02:09:09;10.63;;;4.60;;
63807;SDS011;49961;43.970;22.868;2022-07-23T02:10:09;6.53;;;4.27;;
63807;SDS011;49961;43.970;22.868;2022-07-23T02:11:10;7.27;;;4.17;;
63807;SDS011;49961;43.970;22.868;2022-07-23T02:12:10;7.60;;;4.37;;
63807;SDS011;49961;43.970;22.868;2022-07-23T02:13:11;5.97;;;4.60;;
63807;SDS011;49961;43.970;22.868;2022-07-23T02:14:12;6.90;;;4.20;;
63807;SDS011;49961;43.970;22.868;2022-07-23T02:15:12;5.07;;;3.70;;
63807;SDS011;49961;43.970;22.868;2022-07-23T02:16:13;8.27;;;4.40;;
63807;SDS011;49961;43.970;22.868;2022-07-23T02:17:13;5.30;;;4.30;;
63807;SDS011;49961;43.970;22.868;2022-07-23T02:18:14;6.77;;;4.20;;
63807;SDS011;49961;43.970;22.868;2022-07-23T02:19:14;6.40;;;4.70;;
63807;SDS011;49961;43.970;22.868;2022-07-23T02:20:15;5.97;;;3.80;;
63807;SDS011;49961;43.970;22.868;2022-07-23T02:21:15;7.03;;;4.13;;
63807;SDS011;49961;43.970;22.868;2022-07-23T02:22:16;6.43;;;4.50;;
63807;SDS011;49961;43.970;22.868;2022-07-23T02:23:16;5.90;;;4.13;;
63807;SDS011;49961;43.970;22.868;2022-07-23T02:24:17;10.93;;;4.40;;
63807;SDS011;49961;43.970;22.868;2022-07-23T02:25:18;7.33;;;4.40;;
63807;SDS011;49961;43.970;22.868;2022-07-23T02:26:18;5.20;;;4.17;;
63807;SDS011;49961;43.970;22.868;2022-07-23T02:27:19;7.57;;;4.73;;
63807;SDS011;49961;43.970;22.868;2022-07-23T02:28:19;8.07;;;4.47;;
63807;SDS011;49961;43.970;22.868;2022-07-23T02:29:19;9.67;;;4.33;;
63807;SDS011;49961;43.970;22.868;2022-07-23T02:30:20;8.37;;;4.30;;
63807;SDS011;49961;43.970;22.868;2022-07-23T02:31:20;8.03;;;4.70;;
63807;SDS011;49961;43.970;22.868;2022-07-23T02:32:21;6.07;;;4.33;;
63807;SDS011;49961;43.970;22.868;2022-07-23T02:33:21;7.13;;;4.60;;
63807;SDS011;49961;43.970;22.868;2022-07-23T02:34:22;8.57;;;5.00;;
63807;SDS011;49961;43.970;22.868;2022-07-23T02:35:22;10.30;;;4.80;;
63807;SDS011;49961;43.970;22.868;2022-07-23T02:36:23;6.93;;;4.30;;
63807;SDS011;49961;43.970;22.868;2022-07-23T02:37:23;6.93;;;4.70;;
63807;SDS011;49961;43.970;22.868;2022-07-23T02:38:24;8.47;;;4.73;;
63807;SDS011;49961;43.970;22.868;2022-07-23T02:39:25;6.47;;;4.50;;
63807;SDS011;49961;43.970;22.868;2022-07-23T02:40:25;6.73;;;4.90;;
63807;SDS011;49961;43.970;22.868;2022-07-23T02:41:26;6.03;;;4.30;;
63807;SDS011;49961;43.970;22.868;2022-07-23T02:42:26;9.70;;;4.73;;
63807;SDS011;49961;43.970;22.868;2022-07-23T02:43:27;9.23;;;4.20;;
63807;SDS011;49961;43.970;22.868;2022-07-23T02:44:27;10.03;;;4.83;;
63807;SDS011;49961;43.970;22.868;2022-07-23T02:45:28;9.47;;;4.90;;
63807;SDS011;49961;43.970;22.868;2022-07-23T02:46:28;8.33;;;4.80;;
63807;SDS011;49961;43.970;22.868;2022-07-23T02:47:29;6.10;;;4.33;;
63807;SDS011;49961;43.970;22.868;2022-07-23T02:48:29;8.20;;;4.50;;
63807;SDS011;49961;43.970;22.868;2022-07-23T02:49:30;10.47;;;4.53;;
63807;SDS011;49961;43.970;22.868;2022-07-23T02:50:30;7.90;;;4.37;;
63807;SDS011;49961;43.970;22.868;2022-07-23T02:51:31;6.60;;;4.57;;
63807;SDS011;49961;43.970;22.868;2022-07-23T02:52:31;5.70;;;4.23;;
63807;SDS011;49961;43.970;22.868;2022-07-23T02:53:32;7.63;;;4.20;;
63807;SDS011;49961;43.970;22.868;2022-07-23T02:54:32;6.70;;;3.87;;
63807;SDS011;49961;43.970;22.868;2022-07-23T02:55:32;8.17;;;4.43;;
63807;SDS011;49961;43.970;22.868;2022-07-23T02:56:33;9.23;;;4.60;;
63807;SDS011;49961;43.970;22.868;2022-07-23T02:57:33;10.73;;;4.87;;
63807;SDS011;49961;43.970;22.868;2022-07-23T02:58:34;12.63;;;5.03;;
63807;SDS011;49961;43.970;22.868;2022-07-23T02:59:34;11.30;;;5.17;;
63807;SDS011;49961;43.970;22.868;2022-07-23T03:00:35;8.30;;;4.80;;
63807;SDS011;49961;43.970;22.868;2022-07-23T03:01:36;7.77;;;4.63;;
63807;SDS011;49961;43.970;22.868;2022-07-23T03:02:36;8.67;;;4.70;;
63807;SDS011;49961;43.970;22.868;2022-07-23T03:03:37;7.57;;;4.50;;
63807;SDS011;49961;43.970;22.868;2022-07-23T03:04:37;7.93;;;4.33;;
63807;SDS011;49961;43.970;22.868;2022-07-23T03:05:38;7.20;;;4.03;;
63807;SDS011;49961;43.970;22.868;2022-07-23T03:06:38;9.63;;;4.70;;
63807;SDS011;49961;43.970;22.868;2022-07-23T03:07:39;10.00;;;4.50;;
63807;SDS011;49961;43.970;22.868;2022-07-23T03:08:39;9.53;;;4.63;;
63807;SDS011;49961;43.970;22.868;2022-07-23T03:09:40;6.90;;;4.20;;
63807;SDS011;49961;43.970;22.868;2022-07-23T03:10:40;8.87;;;4.50;;
63807;SDS011;49961;43.970;22.868;2022-07-23T03:11:41;7.87;;;4.30;;
63807;SDS011;49961;43.970;22.868;2022-07-23T03:12:41;6.60;;;4.17;;
63807;SDS011;49961;43.970;22.868;2022-07-23T03:13:43;10.77;;;4.60;;
63807;SDS011;49961;43.970;22.868;2022-07-23T03:14:43;11.13;;;4.30;;
63807;SDS011;49961;43.970;22.868;2022-07-23T03:15:44;11.43;;;4.50;;
63807;SDS011;49961;43.970;22.868;2022-07-23T03:16:44;8.40;;;4.70;;
63807;SDS011;49961;43.970;22.868;2022-07-23T03:17:45;13.80;;;5.50;;
63807;SDS011;49961;43.970;22.868;2022-07-23T03:18:45;13.63;;;4.67;;
63807;SDS011;49961;43.970;22.868;2022-07-23T03:19:46;15.13;;;5.57;;
63807;SDS011;49961;43.970;22.868;2022-07-23T03:20:46;18.90;;;5.60;;
63807;SDS011;49961;43.970;22.868;2022-07-23T03:21:47;18.30;;;5.93;;
63807;SDS011;49961;43.970;22.868;2022-07-23T03:22:47;24.50;;;6.90;;
63807;SDS011;49961;43.970;22.868;2022-07-23T03:23:48;23.57;;;6.53;;
63807;SDS011;49961;43.970;22.868;2022-07-23T03:24:48;18.60;;;6.67;;
63807;SDS011;49961;43.970;22.868;2022-07-23T03:25:55;21.47;;;6.77;;
63807;SDS011;49961;43.970;22.868;2022-07-23T03:26:55;13.20;;;5.63;;
63807;SDS011;49961;43.970;22.868;2022-07-23T03:27:55;18.23;;;4.97;;
63807;SDS011;49961;43.970;22.868;2022-07-23T03:28:56;11.27;;;4.90;;
63807;SDS011;49961;43.970;22.868;2022-07-23T03:29:57;12.27;;;5.17;;
63807;SDS011;49961;43.970;22.868;2022-07-23T03:30:59;10.23;;;4.50;;
63807;SDS011;49961;43.970;22.868;2022-07-23T03:31:59;8.77;;;4.60;;
63807;SDS011;49961;43.970;22.868;2022-07-23T03:33:00;9.37;;;4.60;;
63807;SDS011;49961;43.970;22.868;2022-07-23T03:34:00;8.33;;;4.30;;
63807;SDS011;49961;43.970;22.868;2022-07-23T03:35:01;7.27;;;4.43;;
63807;SDS011;49961;43.970;22.868;2022-07-23T03:36:01;8.57;;;4.13;;
63807;SDS011;49961;43.970;22.868;2022-07-23T03:37:02;7.47;;;4.10;;
63807;SDS011;49961;43.970;22.868;2022-07-23T03:38:02;7.50;;;4.27;;
63807;SDS011;49961;43.970;22.868;2022-07-23T03:39:03;7.73;;;3.80;;
63807;SDS011;49961;43.970;22.868;2022-07-23T03:40:04;7.77;;;4.27;;
63807;SDS011;49961;43.970;22.868;2022-07-23T03:41:05;7.23;;;4.67;;
63807;SDS011;49961;43.970;22.868;2022-07-23T03:42:05;9.37;;;4.33;;
63807;SDS011;49961;43.970;22.868;2022-07-23T03:43:06;9.53;;;4.50;;
63807;SDS011;49961;43.970;22.868;2022-07-23T03:44:07;7.53;;;4.80;;
63807;SDS011;49961;43.970;22.868;2022-07-23T03:45:07;9.37;;;4.43;;
63807;SDS011;49961;43.970;22.868;2022-07-23T03:46:08;8.13;;;4.90;;
63807;SDS011;49961;43.970;22.868;2022-07-23T03:47:09;8.00;;;4.80;;
63807;SDS011;49961;43.970;22.868;2022-07-23T03:48:10;8.40;;;5.60;;
63807;SDS011;49961;43.970;22.868;2022-07-23T03:49:10;7.50;;;4.70;;
63807;SDS011;49961;43.970;22.868;2022-07-23T03:50:11;6.27;;;4.50;;
63807;SDS011;49961;43.970;22.868;2022-07-23T03:51:11;7.07;;;4.67;;
63807;SDS011;49961;43.970;22.868;2022-07-23T03:52:12;7.10;;;4.63;;
63807;SDS011;49961;43.970;22.868;2022-07-23T03:53:12;6.10;;;4.40;;
63807;SDS011;49961;43.970;22.868;2022-07-23T03:54:13;11.77;;;4.17;;
63807;SDS011;49961;43.970;22.868;2022-07-23T03:55:14;8.67;;;4.80;;
63807;SDS011;49961;43.970;22.868;2022-07-23T03:56:14;6.90;;;4.00;;
63807;SDS011;49961;43.970;22.868;2022-07-23T03:57:15;6.97;;;4.20;;
63807;SDS011;49961;43.970;22.868;2022-07-23T03:58:15;11.10;;;4.57;;
63807;SDS011;49961;43.970;22.868;2022-07-23T03:59:16;9.37;;;4.43;;
63807;SDS011;49961;43.970;22.868;2022-07-23T04:00:16;8.07;;;4.40;;
63807;SDS011;49961;43.970;22.868;2022-07-23T04:01:17;8.87;;;4.83;;
63807;SDS011;49961;43.970;22.868;2022-07-23T04:02:17;9.23;;;4.33;;
63807;SDS011;49961;43.970;22.868;2022-07-23T04:03:18;6.50;;;4.33;;
63807;SDS011;49961;43.970;22.868;2022-07-23T04:04:18;10.17;;;4.30;;
63807;SDS011;49961;43.970;22.868;2022-07-23T04:05:19;8.30;;;4.50;;
63807;SDS011;49961;43.970;22.868;2022-07-23T04:06:19;7.97;;;4.50;;
63807;SDS011;49961;43.970;22.868;2022-07-23T04:07:20;7.27;;;4.30;;
63807;SDS011;49961;43.970;22.868;2022-07-23T04:08:21;9.40;;;4.50;;
63807;SDS011;49961;43.970;22.868;2022-07-23T04:09:22;7.30;;;4.40;;
63807;SDS011;49961;43.970;22.868;2022-07-23T04:10:22;6.93;;;4.90;;
63807;SDS011;49961;43.970;22.868;2022-07-23T04:11:23;9.57;;;4.63;;
63807;SDS011;49961;43.970;22.868;2022-07-23T04:12:23;7.20;;;4.37;;
63807;SDS011;49961;43.970;22.868;2022-07-23T04:13:24;6.30;;;4.50;;
63807;SDS011;49961;43.970;22.868;2022-07-23T04:14:25;8.80;;;4.80;;
63807;SDS011;49961;43.970;22.868;2022-07-23T04:15:25;9.17;;;4.70;;
63807;SDS011;49961;43.970;22.868;2022-07-23T04:16:26;7.00;;;4.53;;
63807;SDS011;49961;43.970;22.868;2022-07-23T04:17:26;5.93;;;4.10;;
63807;SDS011;49961;43.970;22.868;2022-07-23T04:18:27;8.43;;;4.43;;
63807;SDS011;49961;43.970;22.868;2022-07-23T04:19:27;7.77;;;3.93;;
63807;SDS011;49961;43.970;22.868;2022-07-23T04:20:28;8.97;;;4.40;;
63807;SDS011;49961;43.970;22.868;2022-07-23T04:21:28;10.10;;;4.43;;
63807;SDS011;49961;43.970;22.868;2022-07-23T04:22:29;7.30;;;4.67;;
63807;SDS011;49961;43.970;22.868;2022-07-23T04:23:30;8.70;;;4.27;;
63807;SDS011;49961;43.970;22.868;2022-07-23T04:24:30;9.00;;;4.43;;
63807;SDS011;49961;43.970;22.868;2022-07-23T04:25:31;7.53;;;3.83;;
63807;SDS011;49961;43.970;22.868;2022-07-23T04:26:31;6.57;;;4.13;;
63807;SDS011;49961;43.970;22.868;2022-07-23T04:27:31;6.77;;;4.10;;
63807;SDS011;49961;43.970;22.868;2022-07-23T04:28:33;8.37;;;4.40;;
63807;SDS011;49961;43.970;22.868;2022-07-23T04:29:33;8.17;;;4.43;;
63807;SDS011;49961;43.970;22.868;2022-07-23T04:30:34;8.67;;;4.10;;
63807;SDS011;49961;43.970;22.868;2022-07-23T04:31:35;7.50;;;4.43;;
63807;SDS011;49961;43.970;22.868;2022-07-23T04:32:35;7.23;;;4.23;;
63807;SDS011;49961;43.970;22.868;2022-07-23T04:33:35;6.97;;;4.33;;
63807;SDS011;49961;43.970;22.868;2022-07-23T04:34:36;6.97;;;3.90;;
63807;SDS011;49961;43.970;22.868;2022-07-23T04:35:36;6.23;;;4.27;;
63807;SDS011;49961;43.970;22.868;2022-07-23T04:36:37;8.10;;;4.30;;
63807;SDS011;49961;43.970;22.868;2022-07-23T04:37:37;6.93;;;4.20;;
63807;SDS011;49961;43.970;22.868;2022-07-23T04:38:38;6.77;;;4.60;;
63807;SDS011;49961;43.970;22.868;2022-07-23T04:39:38;9.97;;;4.60;;
63807;SDS011;49961;43.970;22.868;2022-07-23T04:40:39;8.40;;;4.70;;
63807;SDS011;49961;43.970;22.868;2022-07-23T04:41:39;10.00;;;4.77;;
63807;SDS011;49961;43.970;22.868;2022-07-23T04:42:40;5.13;;;4.50;;
63807;SDS011;49961;43.970;22.868;2022-07-23T04:43:40;6.57;;;4.57;;
63807;SDS011;49961;43.970;22.868;2022-07-23T04:44:41;9.13;;;4.93;;
63807;SDS011;49961;43.970;22.868;2022-07-23T04:45:41;8.87;;;4.20;;
63807;SDS011;49961;43.970;22.868;2022-07-23T04:46:41;9.53;;;4.80;;
63807;SDS011;49961;43.970;22.868;2022-07-23T04:47:42;8.10;;;4.70;;
63807;SDS011;49961;43.970;22.868;2022-07-23T04:48:42;8.53;;;4.57;;
63807;SDS011;49961;43.970;22.868;2022-07-23T04:49:43;10.83;;;4.97;;
63807;SDS011;49961;43.970;22.868;2022-07-23T04:50:43;7.70;;;4.53;;
63807;SDS011;49961;43.970;22.868;2022-07-23T04:51:44;8.33;;;4.10;;
63807;SDS011;49961;43.970;22.868;2022-07-23T04:52:44;10.40;;;4.90;;
63807;SDS011;49961;43.970;22.868;2022-07-23T04:53:45;8.00;;;4.20;;
63807;SDS011;49961;43.970;22.868;2022-07-23T04:54:45;7.67;;;4.27;;
63807;SDS011;49961;43.970;22.868;2022-07-23T04:55:46;7.27;;;4.37;;
63807;SDS011;49961;43.970;22.868;2022-07-23T04:56:46;8.13;;;4.10;;
63807;SDS011;49961;43.970;22.868;2022-07-23T04:57:47;8.70;;;4.47;;
63807;SDS011;49961;43.970;22.868;2022-07-23T04:58:47;7.07;;;4.60;;
63807;SDS011;49961;43.970;22.868;2022-07-23T04:59:48;7.50;;;4.17;;
63807;SDS011;49961;43.970;22.868;2022-07-23T05:00:48;6.60;;;4.33;;
63807;SDS011;49961;43.970;22.868;2022-07-23T05:01:49;10.23;;;4.47;;
63807;SDS011;49961;43.970;22.868;2022-07-23T05:02:49;10.10;;;4.67;;
63807;SDS011;49961;43.970;22.868;2022-07-23T05:03:50;10.27;;;4.10;;
63807;SDS011;49961;43.970;22.868;2022-07-23T05:04:50;7.27;;;4.43;;
63807;SDS011;49961;43.970;22.868;2022-07-23T05:05:51;7.80;;;4.50;;
63807;SDS011;49961;43.970;22.868;2022-07-23T05:06:51;10.50;;;4.07;;
63807;SDS011;49961;43.970;22.868;2022-07-23T05:07:52;10.10;;;4.40;;
63807;SDS011;49961;43.970;22.868;2022-07-23T05:08:52;10.27;;;4.87;;
63807;SDS011;49961;43.970;22.868;2022-07-23T05:09:55;9.40;;;4.40;;
63807;SDS011;49961;43.970;22.868;2022-07-23T05:10:55;9.67;;;4.40;;
63807;SDS011;49961;43.970;22.868;2022-07-23T05:11:55;7.87;;;4.63;;
63807;SDS011;49961;43.970;22.868;2022-07-23T05:12:56;10.63;;;4.50;;
63807;SDS011;49961;43.970;22.868;2022-07-23T05:13:57;11.67;;;4.40;;
63807;SDS011;49961;43.970;22.868;2022-07-23T05:14:57;8.87;;;4.30;;
63807;SDS011;49961;43.970;22.868;2022-07-23T05:15:58;9.53;;;4.20;;
63807;SDS011;49961;43.970;22.868;2022-07-23T05:16:58;6.77;;;4.10;;
63807;SDS011;49961;43.970;22.868;2022-07-23T05:17:59;7.43;;;4.63;;
63807;SDS011;49961;43.970;22.868;2022-07-23T05:18:59;5.73;;;4.10;;
63807;SDS011;49961;43.970;22.868;2022-07-23T05:20:00;8.47;;;4.17;;
63807;SDS011;49961;43.970;22.868;2022-07-23T05:21:00;8.90;;;4.13;;
63807;SDS011;49961;43.970;22.868;2022-07-23T05:22:01;8.33;;;4.50;;
63807;SDS011;49961;43.970;22.868;2022-07-23T05:23:02;8.13;;;4.40;;
63807;SDS011;49961;43.970;22.868;2022-07-23T05:24:02;7.80;;;4.30;;
63807;SDS011;49961;43.970;22.868;2022-07-23T05:25:03;5.83;;;3.77;;
63807;SDS011;49961;43.970;22.868;2022-07-23T05:26:04;8.10;;;4.20;;
63807;SDS011;49961;43.970;22.868;2022-07-23T05:27:05;6.20;;;3.93;;
63807;SDS011;49961;43.970;22.868;2022-07-23T05:28:05;5.80;;;3.93;;
63807;SDS011;49961;43.970;22.868;2022-07-23T05:29:06;4.63;;;3.70;;
63807;SDS011;49961;43.970;22.868;2022-07-23T05:30:06;8.93;;;4.20;;
63807;SDS011;49961;43.970;22.868;2022-07-23T05:31:07;10.17;;;3.73;;
63807;SDS011;49961;43.970;22.868;2022-07-23T05:32:08;7.20;;;4.13;;
63807;SDS011;49961;43.970;22.868;2022-07-23T05:33:09;5.17;;;4.13;;
63807;SDS011;49961;43.970;22.868;2022-07-23T05:34:09;5.70;;;4.10;;
63807;SDS011;49961;43.970;22.868;2022-07-23T05:35:10;7.87;;;3.90;;
63807;SDS011;49961;43.970;22.868;2022-07-23T05:36:11;7.97;;;4.27;;
63807;SDS011;49961;43.970;22.868;2022-07-23T05:37:11;7.20;;;3.90;;
63807;SDS011;49961;43.970;22.868;2022-07-23T05:38:12;7.57;;;4.10;;
63807;SDS011;49961;43.970;22.868;2022-07-23T05:39:12;8.13;;;3.97;;
63807;SDS011;49961;43.970;22.868;2022-07-23T05:40:13;10.77;;;4.43;;
63807;SDS011;49961;43.970;22.868;2022-07-23T05:41:14;7.80;;;3.97;;
63807;SDS011;49961;43.970;22.868;2022-07-23T05:42:15;6.73;;;3.97;;
63807;SDS011;49961;43.970;22.868;2022-07-23T05:43:15;9.43;;;4.20;;
63807;SDS011;49961;43.970;22.868;2022-07-23T05:44:16;8.40;;;4.10;;
63807;SDS011;49961;43.970;22.868;2022-07-23T05:45:16;7.93;;;4.00;;
63807;SDS011;49961;43.970;22.868;2022-07-23T05:46:17;7.67;;;4.30;;
63807;SDS011;49961;43.970;22.868;2022-07-23T05:47:17;9.80;;;4.10;;
63807;SDS011;49961;43.970;22.868;2022-07-23T05:48:18;9.97;;;4.10;;
63807;SDS011;49961;43.970;22.868;2022-07-23T05:49:18;9.90;;;4.30;;
63807;SDS011;49961;43.970;22.868;2022-07-23T05:50:19;9.90;;;4.27;;
63807;SDS011;49961;43.970;22.868;2022-07-23T05:51:20;5.77;;;3.80;;
63807;SDS011;49961;43.970;22.868;2022-07-23T05:52:21;8.07;;;4.20;;
63807;SDS011;49961;43.970;22.868;2022-07-23T05:53:22;8.30;;;4.37;;
63807;SDS011;49961;43.970;22.868;2022-07-23T05:54:22;8.53;;;4.07;;
63807;SDS011;49961;43.970;22.868;2022-07-23T05:55:23;7.20;;;4.00;;
63807;SDS011;49961;43.970;22.868;2022-07-23T05:56:23;8.33;;;4.20;;
63807;SDS011;49961;43.970;22.868;2022-07-23T05:57:24;8.30;;;4.10;;
63807;SDS011;49961;43.970;22.868;2022-07-23T05:58:24;5.60;;;3.93;;
63807;SDS011;49961;43.970;22.868;2022-07-23T05:59:25;7.67;;;4.07;;
63807;SDS011;49961;43.970;22.868;2022-07-23T06:00:25;9.03;;;4.10;;